sensor_id;sensor_type;location;lat;lon;timestamp;P1;durP1;ratioP1;P2;durP2;ratioP2
83358;SDS011;73273;50.882;5.984;2023-12-07T00:01:03;33.47;;;13.33;;
83358;SDS011;73273;50.882;5.984;2023-12-07T00:03:29;30.63;;;13.52;;
83358;SDS011;73273;50.882;5.984;2023-12-07T00:05:55;31.10;;;13.93;;
83358;SDS011;73273;50.882;5.984;2023-12-07T00:08:20;34.17;;;13.47;;
83358;SDS011;73273;50.882;5.984;2023-12-07T00:10:45;32.25;;;14.35;;
83358;SDS011;73273;50.882;5.984;2023-12-07T00:13:11;35.53;;;14.17;;
83358;SDS011;73273;50.882;5.984;2023-12-07T00:15:36;34.73;;;14.00;;
83358;SDS011;73273;50.882;5.984;2023-12-07T00:18:02;33.27;;;13.23;;
83358;SDS011;73273;50.882;5.984;2023-12-07T00:20:28;32.15;;;13.82;;
83358;SDS011;73273;50.882;5.984;2023-12-07T00:22:54;41.35;;;15.90;;
83358;SDS011;73273;50.882;5.984;2023-12-07T00:25:19;49.83;;;17.03;;
83358;SDS011;73273;50.882;5.984;2023-12-07T00:27:44;45.33;;;16.00;;
83358;SDS011;73273;50.882;5.984;2023-12-07T00:30:10;45.65;;;17.48;;
83358;SDS011;73273;50.882;5.984;2023-12-07T00:32:36;50.13;;;17.93;;
83358;SDS011;73273;50.882;5.984;2023-12-07T00:35:01;48.65;;;17.55;;
83358;SDS011;73273;50.882;5.984;2023-12-07T00:37:27;49.33;;;18.17;;
83358;SDS011;73273;50.882;5.984;2023-12-07T00:39:52;46.40;;;17.60;;
83358;SDS011;73273;50.882;5.984;2023-12-07T00:42:17;45.90;;;17.77;;
83358;SDS011;73273;50.882;5.984;2023-12-07T00:44:43;48.33;;;18.27;;
83358;SDS011;73273;50.882;5.984;2023-12-07T00:47:08;53.97;;;19.25;;
83358;SDS011;73273;50.882;5.984;2023-12-07T00:49:37;55.73;;;19.00;;
83358;SDS011;73273;50.882;5.984;2023-12-07T00:52:03;62.83;;;20.95;;
83358;SDS011;73273;50.882;5.984;2023-12-07T00:54:28;61.90;;;19.57;;
83358;SDS011;73273;50.882;5.984;2023-12-07T00:56:54;61.00;;;20.10;;
83358;SDS011;73273;50.882;5.984;2023-12-07T00:59:19;66.53;;;19.83;;
83358;SDS011;73273;50.882;5.984;2023-12-07T01:01:44;65.35;;;18.90;;
83358;SDS011;73273;50.882;5.984;2023-12-07T01:04:10;54.63;;;18.20;;
83358;SDS011;73273;50.882;5.984;2023-12-07T01:06:36;61.27;;;19.87;;
83358;SDS011;73273;50.882;5.984;2023-12-07T01:09:01;71.57;;;19.55;;
83358;SDS011;73273;50.882;5.984;2023-12-07T01:11:28;76.00;;;20.60;;
83358;SDS011;73273;50.882;5.984;2023-12-07T01:13:54;68.00;;;20.83;;
83358;SDS011;73273;50.882;5.984;2023-12-07T01:16:19;63.83;;;18.93;;
83358;SDS011;73273;50.882;5.984;2023-12-07T01:18:44;67.60;;;20.17;;
83358;SDS011;73273;50.882;5.984;2023-12-07T01:21:10;88.40;;;21.63;;
83358;SDS011;73273;50.882;5.984;2023-12-07T01:23:35;80.40;;;21.03;;
83358;SDS011;73273;50.882;5.984;2023-12-07T01:26:00;79.22;;;20.98;;
83358;SDS011;73273;50.882;5.984;2023-12-07T01:28:27;78.00;;;20.37;;
83358;SDS011;73273;50.882;5.984;2023-12-07T01:30:53;81.68;;;21.30;;
83358;SDS011;73273;50.882;5.984;2023-12-07T01:33:18;72.63;;;20.73;;
83358;SDS011;73273;50.882;5.984;2023-12-07T01:35:43;95.70;;;22.87;;
83358;SDS011;73273;50.882;5.984;2023-12-07T01:38:09;76.23;;;20.77;;
83358;SDS011;73273;50.882;5.984;2023-12-07T01:40:34;62.65;;;19.63;;
83358;SDS011;73273;50.882;5.984;2023-12-07T01:42:59;58.13;;;18.37;;
83358;SDS011;73273;50.882;5.984;2023-12-07T01:45:25;63.43;;;19.50;;
83358;SDS011;73273;50.882;5.984;2023-12-07T01:47:51;59.90;;;18.13;;
83358;SDS011;73273;50.882;5.984;2023-12-07T01:50:18;60.00;;;18.67;;
83358;SDS011;73273;50.882;5.984;2023-12-07T01:52:49;56.45;;;15.98;;
83358;SDS011;73273;50.882;5.984;2023-12-07T01:55:17;52.80;;;17.40;;
83358;SDS011;73273;50.882;5.984;2023-12-07T01:57:44;60.47;;;18.52;;
83358;SDS011;73273;50.882;5.984;2023-12-07T02:00:10;54.80;;;16.48;;
83358;SDS011;73273;50.882;5.984;2023-12-07T02:02:39;53.60;;;17.13;;
83358;SDS011;73273;50.882;5.984;2023-12-07T02:05:04;63.23;;;16.53;;
83358;SDS011;73273;50.882;5.984;2023-12-07T02:07:31;58.60;;;16.63;;
83358;SDS011;73273;50.882;5.984;2023-12-07T02:09:57;61.03;;;17.90;;
83358;SDS011;73273;50.882;5.984;2023-12-07T02:12:23;59.88;;;17.13;;
83358;SDS011;73273;50.882;5.984;2023-12-07T02:14:49;59.20;;;17.30;;
83358;SDS011;73273;50.882;5.984;2023-12-07T02:17:20;61.45;;;17.88;;
83358;SDS011;73273;50.882;5.984;2023-12-07T02:19:53;67.47;;;17.67;;
83358;SDS011;73273;50.882;5.984;2023-12-07T02:22:29;64.95;;;16.88;;
83358;SDS011;73273;50.882;5.984;2023-12-07T02:25:13;67.35;;;16.98;;
83358;SDS011;73273;50.882;5.984;2023-12-07T02:30:06;69.97;;;18.27;;
83358;SDS011;73273;50.882;5.984;2023-12-07T02:32:33;72.90;;;18.10;;
83358;SDS011;73273;50.882;5.984;2023-12-07T02:35:00;59.15;;;15.75;;
83358;SDS011;73273;50.882;5.984;2023-12-07T02:37:27;59.83;;;16.27;;
83358;SDS011;73273;50.882;5.984;2023-12-07T02:39:55;55.70;;;16.10;;
83358;SDS011;73273;50.882;5.984;2023-12-07T02:42:21;68.87;;;16.30;;
83358;SDS011;73273;50.882;5.984;2023-12-07T02:44:48;69.35;;;17.00;;
83358;SDS011;73273;50.882;5.984;2023-12-07T02:47:15;69.15;;;16.08;;
83358;SDS011;73273;50.882;5.984;2023-12-07T02:49:40;68.87;;;15.87;;
83358;SDS011;73273;50.882;5.984;2023-12-07T02:52:06;63.77;;;14.93;;
83358;SDS011;73273;50.882;5.984;2023-12-07T02:54:31;72.67;;;16.73;;
83358;SDS011;73273;50.882;5.984;2023-12-07T02:56:57;66.10;;;16.47;;
83358;SDS011;73273;50.882;5.984;2023-12-07T02:59:22;68.77;;;15.80;;
83358;SDS011;73273;50.882;5.984;2023-12-07T03:01:47;57.03;;;15.53;;
83358;SDS011;73273;50.882;5.984;2023-12-07T03:04:13;69.00;;;15.37;;
83358;SDS011;73273;50.882;5.984;2023-12-07T03:06:38;59.90;;;14.57;;
83358;SDS011;73273;50.882;5.984;2023-12-07T03:09:03;55.63;;;15.23;;
83358;SDS011;73273;50.882;5.984;2023-12-07T03:11:29;58.13;;;14.37;;
83358;SDS011;73273;50.882;5.984;2023-12-07T03:13:54;55.33;;;13.93;;
83358;SDS011;73273;50.882;5.984;2023-12-07T03:16:19;54.47;;;15.13;;
83358;SDS011;73273;50.882;5.984;2023-12-07T03:18:45;55.08;;;14.68;;
83358;SDS011;73273;50.882;5.984;2023-12-07T03:21:10;57.83;;;14.50;;
83358;SDS011;73273;50.882;5.984;2023-12-07T03:23:36;55.60;;;14.53;;
83358;SDS011;73273;50.882;5.984;2023-12-07T03:26:01;51.33;;;14.17;;
83358;SDS011;73273;50.882;5.984;2023-12-07T03:28:26;51.73;;;14.20;;
83358;SDS011;73273;50.882;5.984;2023-12-07T03:30:51;54.27;;;15.17;;
83358;SDS011;73273;50.882;5.984;2023-12-07T03:33:17;48.13;;;13.63;;
83358;SDS011;73273;50.882;5.984;2023-12-07T03:35:42;52.80;;;15.47;;
83358;SDS011;73273;50.882;5.984;2023-12-07T03:38:08;47.90;;;14.57;;
83358;SDS011;73273;50.882;5.984;2023-12-07T03:40:33;49.03;;;14.07;;
83358;SDS011;73273;50.882;5.984;2023-12-07T03:42:58;50.10;;;14.63;;
83358;SDS011;73273;50.882;5.984;2023-12-07T03:45:24;49.50;;;14.17;;
83358;SDS011;73273;50.882;5.984;2023-12-07T03:47:49;55.05;;;15.15;;
83358;SDS011;73273;50.882;5.984;2023-12-07T03:50:15;57.63;;;15.40;;
83358;SDS011;73273;50.882;5.984;2023-12-07T03:52:40;54.90;;;14.60;;
83358;SDS011;73273;50.882;5.984;2023-12-07T03:55:06;61.73;;;15.37;;
83358;SDS011;73273;50.882;5.984;2023-12-07T03:57:31;62.80;;;15.73;;
83358;SDS011;73273;50.882;5.984;2023-12-07T03:59:57;64.27;;;15.40;;
83358;SDS011;73273;50.882;5.984;2023-12-07T04:02:22;74.17;;;15.47;;
83358;SDS011;73273;50.882;5.984;2023-12-07T04:04:48;73.10;;;15.97;;
83358;SDS011;73273;50.882;5.984;2023-12-07T04:07:13;75.20;;;17.17;;
83358;SDS011;73273;50.882;5.984;2023-12-07T04:09:38;89.07;;;17.30;;
83358;SDS011;73273;50.882;5.984;2023-12-07T04:12:04;91.87;;;16.73;;
83358;SDS011;73273;50.882;5.984;2023-12-07T04:14:29;91.53;;;15.90;;
83358;SDS011;73273;50.882;5.984;2023-12-07T04:16:55;97.37;;;16.43;;
83358;SDS011;73273;50.882;5.984;2023-12-07T04:19:20;102.13;;;16.23;;
83358;SDS011;73273;50.882;5.984;2023-12-07T04:21:46;103.77;;;16.67;;
83358;SDS011;73273;50.882;5.984;2023-12-07T04:24:11;108.33;;;17.83;;
83358;SDS011;73273;50.882;5.984;2023-12-07T04:26:36;130.70;;;19.13;;
83358;SDS011;73273;50.882;5.984;2023-12-07T04:29:02;137.50;;;22.00;;
83358;SDS011;73273;50.882;5.984;2023-12-07T04:31:27;132.50;;;22.07;;
83358;SDS011;73273;50.882;5.984;2023-12-07T04:33:53;133.67;;;21.37;;
83358;SDS011;73273;50.882;5.984;2023-12-07T04:36:18;92.30;;;17.43;;
83358;SDS011;73273;50.882;5.984;2023-12-07T04:38:44;83.57;;;17.53;;
83358;SDS011;73273;50.882;5.984;2023-12-07T04:41:09;78.88;;;17.27;;
83358;SDS011;73273;50.882;5.984;2023-12-07T04:43:34;64.50;;;16.63;;
83358;SDS011;73273;50.882;5.984;2023-12-07T04:46:00;57.13;;;16.87;;
83358;SDS011;73273;50.882;5.984;2023-12-07T04:48:25;60.97;;;15.37;;
83358;SDS011;73273;50.882;5.984;2023-12-07T04:50:51;55.50;;;14.70;;
83358;SDS011;73273;50.882;5.984;2023-12-07T04:53:16;57.78;;;14.88;;
83358;SDS011;73273;50.882;5.984;2023-12-07T04:55:42;50.40;;;13.83;;
83358;SDS011;73273;50.882;5.984;2023-12-07T04:58:12;44.38;;;13.57;;
83358;SDS011;73273;50.882;5.984;2023-12-07T05:00:37;41.35;;;13.30;;
83358;SDS011;73273;50.882;5.984;2023-12-07T05:03:02;49.67;;;13.63;;
83358;SDS011;73273;50.882;5.984;2023-12-07T05:05:28;42.17;;;13.53;;
83358;SDS011;73273;50.882;5.984;2023-12-07T05:07:53;42.87;;;13.87;;
83358;SDS011;73273;50.882;5.984;2023-12-07T05:10:18;44.37;;;13.40;;
83358;SDS011;73273;50.882;5.984;2023-12-07T05:12:44;41.50;;;12.63;;
83358;SDS011;73273;50.882;5.984;2023-12-07T05:15:09;44.83;;;13.00;;
83358;SDS011;73273;50.882;5.984;2023-12-07T05:17:35;52.13;;;14.07;;
83358;SDS011;73273;50.882;5.984;2023-12-07T05:20:00;54.83;;;15.40;;
83358;SDS011;73273;50.882;5.984;2023-12-07T05:22:27;58.40;;;14.90;;
83358;SDS011;73273;50.882;5.984;2023-12-07T05:24:52;44.30;;;12.27;;
83358;SDS011;73273;50.882;5.984;2023-12-07T05:27:17;55.87;;;13.77;;
83358;SDS011;73273;50.882;5.984;2023-12-07T05:29:43;61.30;;;14.63;;
83358;SDS011;73273;50.882;5.984;2023-12-07T05:32:08;63.08;;;13.45;;
83358;SDS011;73273;50.882;5.984;2023-12-07T05:34:34;56.97;;;14.20;;
83358;SDS011;73273;50.882;5.984;2023-12-07T05:37:00;65.32;;;13.65;;
83358;SDS011;73273;50.882;5.984;2023-12-07T05:39:25;49.13;;;13.97;;
83358;SDS011;73273;50.882;5.984;2023-12-07T05:41:51;51.57;;;12.93;;
83358;SDS011;73273;50.882;5.984;2023-12-07T05:44:16;57.57;;;14.97;;
83358;SDS011;73273;50.882;5.984;2023-12-07T05:46:46;66.82;;;14.50;;
83358;SDS011;73273;50.882;5.984;2023-12-07T05:49:12;70.55;;;15.27;;
83358;SDS011;73273;50.882;5.984;2023-12-07T05:51:38;73.47;;;15.80;;
83358;SDS011;73273;50.882;5.984;2023-12-07T05:54:03;74.23;;;14.87;;
83358;SDS011;73273;50.882;5.984;2023-12-07T05:56:29;75.78;;;16.70;;
83358;SDS011;73273;50.882;5.984;2023-12-07T05:58:54;86.27;;;16.37;;
83358;SDS011;73273;50.882;5.984;2023-12-07T06:01:19;72.63;;;16.37;;
83358;SDS011;73273;50.882;5.984;2023-12-07T06:03:45;93.20;;;17.20;;
83358;SDS011;73273;50.882;5.984;2023-12-07T06:06:10;87.28;;;16.50;;
83358;SDS011;73273;50.882;5.984;2023-12-07T06:08:39;90.90;;;16.47;;
83358;SDS011;73273;50.882;5.984;2023-12-07T06:11:05;89.75;;;19.35;;
83358;SDS011;73273;50.882;5.984;2023-12-07T06:13:30;95.93;;;17.80;;
83358;SDS011;73273;50.882;5.984;2023-12-07T06:15:56;107.15;;;18.05;;
83358;SDS011;73273;50.882;5.984;2023-12-07T06:18:21;96.07;;;18.10;;
83358;SDS011;73273;50.882;5.984;2023-12-07T06:20:47;130.87;;;19.90;;
83358;SDS011;73273;50.882;5.984;2023-12-07T06:23:12;120.20;;;19.90;;
83358;SDS011;73273;50.882;5.984;2023-12-07T06:25:41;111.93;;;18.53;;
83358;SDS011;73273;50.882;5.984;2023-12-07T06:28:06;109.75;;;18.05;;
83358;SDS011;73273;50.882;5.984;2023-12-07T06:30:32;120.60;;;19.08;;
83358;SDS011;73273;50.882;5.984;2023-12-07T06:32:57;105.23;;;17.33;;
83358;SDS011;73273;50.882;5.984;2023-12-07T06:35:23;141.00;;;19.63;;
83358;SDS011;73273;50.882;5.984;2023-12-07T06:37:48;136.15;;;20.38;;
83358;SDS011;73273;50.882;5.984;2023-12-07T06:40:14;129.83;;;20.77;;
83358;SDS011;73273;50.882;5.984;2023-12-07T06:42:39;116.97;;;18.83;;
83358;SDS011;73273;50.882;5.984;2023-12-07T06:45:05;124.43;;;17.80;;
83358;SDS011;73273;50.882;5.984;2023-12-07T06:47:35;130.10;;;19.95;;
83358;SDS011;73273;50.882;5.984;2023-12-07T06:50:00;114.60;;;18.23;;
83358;SDS011;73273;50.882;5.984;2023-12-07T06:52:27;124.32;;;18.10;;
83358;SDS011;73273;50.882;5.984;2023-12-07T06:54:53;129.13;;;19.53;;
83358;SDS011;73273;50.882;5.984;2023-12-07T06:57:18;109.00;;;18.57;;
83358;SDS011;73273;50.882;5.984;2023-12-07T06:59:43;124.37;;;19.00;;
83358;SDS011;73273;50.882;5.984;2023-12-07T07:02:09;135.43;;;18.75;;
83358;SDS011;73273;50.882;5.984;2023-12-07T07:04:34;126.53;;;19.13;;
83358;SDS011;73273;50.882;5.984;2023-12-07T07:07:00;121.83;;;19.63;;
83358;SDS011;73273;50.882;5.984;2023-12-07T07:09:25;111.13;;;19.20;;
83358;SDS011;73273;50.882;5.984;2023-12-07T07:11:50;122.07;;;20.03;;
83358;SDS011;73273;50.882;5.984;2023-12-07T07:14:16;129.15;;;19.05;;
83358;SDS011;73273;50.882;5.984;2023-12-07T07:16:41;122.33;;;18.07;;
83358;SDS011;73273;50.882;5.984;2023-12-07T07:19:07;123.07;;;17.80;;
83358;SDS011;73273;50.882;5.984;2023-12-07T07:21:33;105.65;;;18.05;;
83358;SDS011;73273;50.882;5.984;2023-12-07T07:23:58;106.27;;;18.57;;
83358;SDS011;73273;50.882;5.984;2023-12-07T07:26:24;104.20;;;17.02;;
83358;SDS011;73273;50.882;5.984;2023-12-07T07:28:50;111.07;;;17.47;;
83358;SDS011;73273;50.882;5.984;2023-12-07T07:31:16;101.25;;;15.77;;
83358;SDS011;73273;50.882;5.984;2023-12-07T07:33:42;105.30;;;16.92;;
83358;SDS011;73273;50.882;5.984;2023-12-07T07:36:08;90.70;;;16.57;;
83358;SDS011;73273;50.882;5.984;2023-12-07T07:38:34;86.20;;;15.32;;
83358;SDS011;73273;50.882;5.984;2023-12-07T07:41:00;80.33;;;15.37;;
83358;SDS011;73273;50.882;5.984;2023-12-07T07:43:25;79.28;;;14.82;;
83358;SDS011;73273;50.882;5.984;2023-12-07T07:45:51;81.03;;;15.07;;
83358;SDS011;73273;50.882;5.984;2023-12-07T07:48:16;64.80;;;13.93;;
83358;SDS011;73273;50.882;5.984;2023-12-07T07:50:41;65.13;;;14.27;;
83358;SDS011;73273;50.882;5.984;2023-12-07T07:53:07;66.47;;;13.93;;
83358;SDS011;73273;50.882;5.984;2023-12-07T07:55:32;64.10;;;13.65;;
83358;SDS011;73273;50.882;5.984;2023-12-07T07:57:57;65.50;;;16.27;;
83358;SDS011;73273;50.882;5.984;2023-12-07T08:00:23;50.37;;;13.50;;
83358;SDS011;73273;50.882;5.984;2023-12-07T08:02:51;52.47;;;14.90;;
83358;SDS011;73273;50.882;5.984;2023-12-07T08:05:16;46.43;;;13.20;;
83358;SDS011;73273;50.882;5.984;2023-12-07T08:07:42;55.55;;;14.20;;
83358;SDS011;73273;50.882;5.984;2023-12-07T08:10:07;47.83;;;12.93;;
83358;SDS011;73273;50.882;5.984;2023-12-07T08:12:34;46.30;;;12.45;;
83358;SDS011;73273;50.882;5.984;2023-12-07T08:15:04;47.53;;;13.50;;
83358;SDS011;73273;50.882;5.984;2023-12-07T08:17:30;49.45;;;13.18;;
83358;SDS011;73273;50.882;5.984;2023-12-07T08:19:55;48.40;;;12.15;;
83358;SDS011;73273;50.882;5.984;2023-12-07T08:22:22;44.20;;;14.03;;
83358;SDS011;73273;50.882;5.984;2023-12-07T08:24:48;42.27;;;13.80;;
83358;SDS011;73273;50.882;5.984;2023-12-07T08:27:13;30.53;;;8.60;;
83358;SDS011;73273;50.882;5.984;2023-12-07T08:29:39;31.33;;;9.88;;
83358;SDS011;73273;50.882;5.984;2023-12-07T08:32:04;22.40;;;8.33;;
83358;SDS011;73273;50.882;5.984;2023-12-07T08:34:30;21.37;;;8.07;;
83358;SDS011;73273;50.882;5.984;2023-12-07T08:36:55;19.67;;;7.40;;
83358;SDS011;73273;50.882;5.984;2023-12-07T08:39:21;17.48;;;6.72;;
83358;SDS011;73273;50.882;5.984;2023-12-07T08:41:46;17.33;;;6.87;;
83358;SDS011;73273;50.882;5.984;2023-12-07T08:44:12;19.80;;;6.90;;
83358;SDS011;73273;50.882;5.984;2023-12-07T08:46:37;18.13;;;6.97;;
83358;SDS011;73273;50.882;5.984;2023-12-07T08:49:02;18.57;;;6.27;;
83358;SDS011;73273;50.882;5.984;2023-12-07T08:51:28;16.77;;;6.65;;
83358;SDS011;73273;50.882;5.984;2023-12-07T08:53:54;19.40;;;7.03;;
83358;SDS011;73273;50.882;5.984;2023-12-07T08:56:19;18.50;;;7.03;;
83358;SDS011;73273;50.882;5.984;2023-12-07T08:58:45;19.50;;;7.97;;
83358;SDS011;73273;50.882;5.984;2023-12-07T09:01:10;21.23;;;6.90;;
83358;SDS011;73273;50.882;5.984;2023-12-07T09:03:36;19.35;;;7.07;;
83358;SDS011;73273;50.882;5.984;2023-12-07T09:06:02;19.13;;;7.03;;
83358;SDS011;73273;50.882;5.984;2023-12-07T09:08:28;19.42;;;7.32;;
83358;SDS011;73273;50.882;5.984;2023-12-07T09:10:53;18.03;;;6.47;;
83358;SDS011;73273;50.882;5.984;2023-12-07T09:13:18;15.97;;;6.23;;
83358;SDS011;73273;50.882;5.984;2023-12-07T09:15:44;18.60;;;6.23;;
83358;SDS011;73273;50.882;5.984;2023-12-07T09:18:09;17.80;;;7.27;;
83358;SDS011;73273;50.882;5.984;2023-12-07T09:20:36;15.38;;;6.13;;
83358;SDS011;73273;50.882;5.984;2023-12-07T09:23:02;14.43;;;5.78;;
83358;SDS011;73273;50.882;5.984;2023-12-07T09:25:29;17.35;;;6.00;;
83358;SDS011;73273;50.882;5.984;2023-12-07T09:27:55;17.80;;;6.07;;
83358;SDS011;73273;50.882;5.984;2023-12-07T09:30:21;16.87;;;5.93;;
83358;SDS011;73273;50.882;5.984;2023-12-07T09:32:47;15.32;;;5.60;;
83358;SDS011;73273;50.882;5.984;2023-12-07T09:35:12;17.57;;;6.03;;
83358;SDS011;73273;50.882;5.984;2023-12-07T09:37:44;16.60;;;5.43;;
83358;SDS011;73273;50.882;5.984;2023-12-07T09:42:42;15.27;;;5.28;;
83358;SDS011;73273;50.882;5.984;2023-12-07T09:45:08;13.73;;;5.53;;
83358;SDS011;73273;50.882;5.984;2023-12-07T09:47:34;14.27;;;5.60;;
83358;SDS011;73273;50.882;5.984;2023-12-07T09:50:02;12.17;;;5.00;;
83358;SDS011;73273;50.882;5.984;2023-12-07T09:52:28;14.10;;;5.18;;
83358;SDS011;73273;50.882;5.984;2023-12-07T09:54:54;13.47;;;6.00;;
83358;SDS011;73273;50.882;5.984;2023-12-07T09:57:21;13.00;;;4.85;;
83358;SDS011;73273;50.882;5.984;2023-12-07T09:59:47;12.20;;;4.80;;
83358;SDS011;73273;50.882;5.984;2023-12-07T10:02:13;12.53;;;4.33;;
83358;SDS011;73273;50.882;5.984;2023-12-07T10:04:39;10.30;;;4.13;;
83358;SDS011;73273;50.882;5.984;2023-12-07T10:07:05;11.53;;;4.27;;
83358;SDS011;73273;50.882;5.984;2023-12-07T10:09:33;12.95;;;5.13;;
83358;SDS011;73273;50.882;5.984;2023-12-07T10:12:03;16.45;;;5.55;;
83358;SDS011;73273;50.882;5.984;2023-12-07T10:14:29;13.02;;;4.80;;
83358;SDS011;73273;50.882;5.984;2023-12-07T10:16:55;12.93;;;5.20;;
83358;SDS011;73273;50.882;5.984;2023-12-07T10:19:21;12.68;;;4.65;;
83358;SDS011;73273;50.882;5.984;2023-12-07T10:21:51;12.80;;;5.45;;
83358;SDS011;73273;50.882;5.984;2023-12-07T10:24:17;12.50;;;5.43;;
83358;SDS011;73273;50.882;5.984;2023-12-07T10:26:44;17.67;;;4.47;;
83358;SDS011;73273;50.882;5.984;2023-12-07T10:29:10;12.30;;;4.65;;
83358;SDS011;73273;50.882;5.984;2023-12-07T10:31:36;11.90;;;5.17;;
83358;SDS011;73273;50.882;5.984;2023-12-07T10:34:02;12.82;;;4.53;;
83358;SDS011;73273;50.882;5.984;2023-12-07T10:36:29;13.00;;;4.60;;
83358;SDS011;73273;50.882;5.984;2023-12-07T10:38:54;12.53;;;4.87;;
83358;SDS011;73273;50.882;5.984;2023-12-07T10:41:20;12.30;;;4.88;;
83358;SDS011;73273;50.882;5.984;2023-12-07T10:43:49;10.20;;;3.80;;
83358;SDS011;73273;50.882;5.984;2023-12-07T10:46:18;12.48;;;4.47;;
83358;SDS011;73273;50.882;5.984;2023-12-07T10:48:45;11.68;;;4.22;;
83358;SDS011;73273;50.882;5.984;2023-12-07T10:51:17;11.07;;;4.30;;
83358;SDS011;73273;50.882;5.984;2023-12-07T10:53:48;11.25;;;4.28;;
83358;SDS011;73273;50.882;5.984;2023-12-07T10:56:20;9.73;;;4.10;;
83358;SDS011;73273;50.882;5.984;2023-12-07T10:58:57;11.73;;;4.22;;
83358;SDS011;73273;50.882;5.984;2023-12-07T11:01:24;11.85;;;4.50;;
83358;SDS011;73273;50.882;5.984;2023-12-07T11:03:50;11.05;;;3.70;;
83358;SDS011;73273;50.882;5.984;2023-12-07T11:06:18;9.43;;;3.72;;
83358;SDS011;73273;50.882;5.984;2023-12-07T11:08:44;11.47;;;4.00;;
83358;SDS011;73273;50.882;5.984;2023-12-07T11:13:49;11.13;;;4.00;;
83358;SDS011;73273;50.882;5.984;2023-12-07T11:16:30;10.80;;;4.00;;
83358;SDS011;73273;50.882;5.984;2023-12-07T11:19:00;10.10;;;4.13;;
83358;SDS011;73273;50.882;5.984;2023-12-07T11:21:26;8.83;;;3.43;;
83358;SDS011;73273;50.882;5.984;2023-12-07T11:23:54;9.43;;;3.88;;
83358;SDS011;73273;50.882;5.984;2023-12-07T11:26:23;11.68;;;3.97;;
83358;SDS011;73273;50.882;5.984;2023-12-07T11:28:49;9.00;;;3.47;;
83358;SDS011;73273;50.882;5.984;2023-12-07T11:31:14;9.52;;;3.60;;
83358;SDS011;73273;50.882;5.984;2023-12-07T11:33:41;10.25;;;4.22;;
83358;SDS011;73273;50.882;5.984;2023-12-07T11:36:10;7.53;;;3.37;;
83358;SDS011;73273;50.882;5.984;2023-12-07T11:38:38;9.38;;;3.78;;
83358;SDS011;73273;50.882;5.984;2023-12-07T11:41:20;11.68;;;4.13;;
83358;SDS011;73273;50.882;5.984;2023-12-07T11:43:45;8.90;;;3.47;;
83358;SDS011;73273;50.882;5.984;2023-12-07T11:46:11;8.67;;;3.33;;
83358;SDS011;73273;50.882;5.984;2023-12-07T11:48:38;7.90;;;3.40;;
83358;SDS011;73273;50.882;5.984;2023-12-07T11:51:06;9.70;;;3.63;;
83358;SDS011;73273;50.882;5.984;2023-12-07T11:53:37;9.52;;;3.60;;
83358;SDS011;73273;50.882;5.984;2023-12-07T11:56:04;8.32;;;3.40;;
83358;SDS011;73273;50.882;5.984;2023-12-07T11:58:31;9.70;;;3.50;;
83358;SDS011;73273;50.882;5.984;2023-12-07T12:00:58;8.55;;;3.20;;
83358;SDS011;73273;50.882;5.984;2023-12-07T12:03:28;7.90;;;3.10;;
83358;SDS011;73273;50.882;5.984;2023-12-07T12:05:56;6.97;;;2.63;;
83358;SDS011;73273;50.882;5.984;2023-12-07T12:08:21;7.33;;;3.03;;
83358;SDS011;73273;50.882;5.984;2023-12-07T12:10:48;6.43;;;2.67;;
83358;SDS011;73273;50.882;5.984;2023-12-07T12:13:16;7.82;;;2.60;;
83358;SDS011;73273;50.882;5.984;2023-12-07T12:15:42;7.63;;;2.20;;
83358;SDS011;73273;50.882;5.984;2023-12-07T12:18:08;8.18;;;2.53;;
83358;SDS011;73273;50.882;5.984;2023-12-07T12:20:34;7.00;;;2.80;;
83358;SDS011;73273;50.882;5.984;2023-12-07T12:23:00;6.68;;;2.85;;
83358;SDS011;73273;50.882;5.984;2023-12-07T12:25:26;7.97;;;2.97;;
83358;SDS011;73273;50.882;5.984;2023-12-07T12:27:55;7.77;;;2.80;;
83358;SDS011;73273;50.882;5.984;2023-12-07T12:30:22;6.85;;;2.75;;
83358;SDS011;73273;50.882;5.984;2023-12-07T12:32:48;6.13;;;2.42;;
83358;SDS011;73273;50.882;5.984;2023-12-07T12:35:15;7.13;;;3.05;;
83358;SDS011;73273;50.882;5.984;2023-12-07T12:37:41;6.50;;;2.90;;
83358;SDS011;73273;50.882;5.984;2023-12-07T12:40:08;10.03;;;2.83;;
83358;SDS011;73273;50.882;5.984;2023-12-07T12:42:35;7.68;;;2.90;;
83358;SDS011;73273;50.882;5.984;2023-12-07T12:45:04;8.38;;;2.78;;
83358;SDS011;73273;50.882;5.984;2023-12-07T12:47:30;6.63;;;2.40;;
83358;SDS011;73273;50.882;5.984;2023-12-07T12:49:56;6.63;;;2.67;;
83358;SDS011;73273;50.882;5.984;2023-12-07T12:52:23;10.05;;;2.38;;
83358;SDS011;73273;50.882;5.984;2023-12-07T12:54:50;6.83;;;2.70;;
83358;SDS011;73273;50.882;5.984;2023-12-07T12:57:16;6.68;;;2.22;;
83358;SDS011;73273;50.882;5.984;2023-12-07T12:59:44;8.25;;;2.72;;
83358;SDS011;73273;50.882;5.984;2023-12-07T13:02:10;5.57;;;2.20;;
83358;SDS011;73273;50.882;5.984;2023-12-07T13:04:35;5.95;;;2.40;;
83358;SDS011;73273;50.882;5.984;2023-12-07T13:07:00;5.57;;;3.00;;
83358;SDS011;73273;50.882;5.984;2023-12-07T13:09:26;8.80;;;2.73;;
83358;SDS011;73273;50.882;5.984;2023-12-07T13:11:51;7.17;;;2.47;;
83358;SDS011;73273;50.882;5.984;2023-12-07T13:14:16;9.33;;;2.80;;
83358;SDS011;73273;50.882;5.984;2023-12-07T13:16:42;6.10;;;2.10;;
83358;SDS011;73273;50.882;5.984;2023-12-07T13:19:07;7.18;;;2.70;;
83358;SDS011;73273;50.882;5.984;2023-12-07T13:21:33;5.63;;;2.50;;
83358;SDS011;73273;50.882;5.984;2023-12-07T13:23:58;5.53;;;2.17;;
83358;SDS011;73273;50.882;5.984;2023-12-07T13:26:24;8.00;;;2.20;;
83358;SDS011;73273;50.882;5.984;2023-12-07T13:28:49;6.75;;;2.38;;
83358;SDS011;73273;50.882;5.984;2023-12-07T13:31:15;8.27;;;2.50;;
83358;SDS011;73273;50.882;5.984;2023-12-07T13:33:40;8.02;;;2.35;;
83358;SDS011;73273;50.882;5.984;2023-12-07T13:36:06;5.10;;;2.03;;
83358;SDS011;73273;50.882;5.984;2023-12-07T13:38:32;6.90;;;2.28;;
83358;SDS011;73273;50.882;5.984;2023-12-07T13:40:59;6.57;;;2.60;;
83358;SDS011;73273;50.882;5.984;2023-12-07T13:43:25;6.00;;;2.33;;
83358;SDS011;73273;50.882;5.984;2023-12-07T13:45:50;6.32;;;2.50;;
83358;SDS011;73273;50.882;5.984;2023-12-07T13:48:16;6.53;;;2.50;;
83358;SDS011;73273;50.882;5.984;2023-12-07T13:50:43;7.43;;;2.50;;
83358;SDS011;73273;50.882;5.984;2023-12-07T13:53:08;6.67;;;2.50;;
83358;SDS011;73273;50.882;5.984;2023-12-07T13:55:37;6.82;;;2.58;;
83358;SDS011;73273;50.882;5.984;2023-12-07T13:58:04;7.35;;;2.63;;
83358;SDS011;73273;50.882;5.984;2023-12-07T14:00:31;6.82;;;2.50;;
83358;SDS011;73273;50.882;5.984;2023-12-07T14:02:57;9.60;;;2.80;;
83358;SDS011;73273;50.882;5.984;2023-12-07T14:05:22;7.00;;;2.80;;
83358;SDS011;73273;50.882;5.984;2023-12-07T14:07:48;9.60;;;2.60;;
83358;SDS011;73273;50.882;5.984;2023-12-07T14:10:13;7.13;;;2.88;;
83358;SDS011;73273;50.882;5.984;2023-12-07T14:12:40;10.07;;;2.60;;
83358;SDS011;73273;50.882;5.984;2023-12-07T14:15:05;8.10;;;2.65;;
83358;SDS011;73273;50.882;5.984;2023-12-07T14:17:32;10.30;;;4.10;;
83358;SDS011;73273;50.882;5.984;2023-12-07T14:20:03;10.23;;;4.40;;
83358;SDS011;73273;50.882;5.984;2023-12-07T14:22:33;11.82;;;4.57;;
83358;SDS011;73273;50.882;5.984;2023-12-07T14:25:00;17.58;;;5.20;;
83358;SDS011;73273;50.882;5.984;2023-12-07T14:27:26;11.43;;;5.10;;
83358;SDS011;73273;50.882;5.984;2023-12-07T14:29:51;12.27;;;5.80;;